sensor_id;sensor_type;location;lat;lon;timestamp;P1;durP1;ratioP1;P2;durP2;ratioP2
13720;SDS011;6932;51.438;5.470;2023-09-08T00:01:38;9.33;;;5.70;;
13720;SDS011;6932;51.438;5.470;2023-09-08T00:04:03;7.97;;;5.67;;
13720;SDS011;6932;51.438;5.470;2023-09-08T00:06:30;8.13;;;5.60;;
13720;SDS011;6932;51.438;5.470;2023-09-08T00:08:56;9.47;;;5.77;;
13720;SDS011;6932;51.438;5.470;2023-09-08T00:11:22;8.27;;;5.43;;
13720;SDS011;6932;51.438;5.470;2023-09-08T00:13:47;9.00;;;6.10;;
13720;SDS011;6932;51.438;5.470;2023-09-08T00:16:15;9.10;;;5.70;;
13720;SDS011;6932;51.438;5.470;2023-09-08T00:18:41;9.80;;;5.67;;
13720;SDS011;6932;51.438;5.470;2023-09-08T00:21:07;9.13;;;5.83;;
13720;SDS011;6932;51.438;5.470;2023-09-08T00:23:32;7.73;;;5.33;;
13720;SDS011;6932;51.438;5.470;2023-09-08T00:25:58;11.80;;;6.00;;
13720;SDS011;6932;51.438;5.470;2023-09-08T00:28:24;8.97;;;5.50;;
13720;SDS011;6932;51.438;5.470;2023-09-08T00:30:49;7.47;;;5.03;;
13720;SDS011;6932;51.438;5.470;2023-09-08T00:33:16;7.83;;;5.23;;
13720;SDS011;6932;51.438;5.470;2023-09-08T00:35:45;9.07;;;5.70;;
13720;SDS011;6932;51.438;5.470;2023-09-08T00:38:14;7.30;;;5.30;;
13720;SDS011;6932;51.438;5.470;2023-09-08T00:40:39;9.23;;;5.77;;
13720;SDS011;6932;51.438;5.470;2023-09-08T00:43:05;7.03;;;5.37;;
13720;SDS011;6932;51.438;5.470;2023-09-08T00:45:31;9.13;;;5.80;;
13720;SDS011;6932;51.438;5.470;2023-09-08T00:48:01;9.17;;;5.60;;
13720;SDS011;6932;51.438;5.470;2023-09-08T00:50:26;8.63;;;5.60;;
13720;SDS011;6932;51.438;5.470;2023-09-08T00:52:52;10.10;;;5.57;;
13720;SDS011;6932;51.438;5.470;2023-09-08T00:55:18;8.33;;;5.97;;
13720;SDS011;6932;51.438;5.470;2023-09-08T00:57:44;10.10;;;5.80;;
13720;SDS011;6932;51.438;5.470;2023-09-08T01:00:10;8.90;;;5.53;;
13720;SDS011;6932;51.438;5.470;2023-09-08T01:02:36;8.93;;;5.70;;
13720;SDS011;6932;51.438;5.470;2023-09-08T01:05:02;8.80;;;5.70;;
13720;SDS011;6932;51.438;5.470;2023-09-08T01:07:29;9.67;;;5.60;;
13720;SDS011;6932;51.438;5.470;2023-09-08T01:09:56;7.93;;;5.73;;
13720;SDS011;6932;51.438;5.470;2023-09-08T01:12:28;9.40;;;5.93;;
13720;SDS011;6932;51.438;5.470;2023-09-08T01:14:54;9.77;;;5.73;;
13720;SDS011;6932;51.438;5.470;2023-09-08T01:17:20;8.00;;;5.60;;
13720;SDS011;6932;51.438;5.470;2023-09-08T01:19:45;9.97;;;5.83;;
13720;SDS011;6932;51.438;5.470;2023-09-08T01:25:27;9.07;;;6.10;;
13720;SDS011;6932;51.438;5.470;2023-09-08T01:27:57;8.13;;;6.03;;
13720;SDS011;6932;51.438;5.470;2023-09-08T01:30:26;8.30;;;5.80;;
13720;SDS011;6932;51.438;5.470;2023-09-08T01:32:57;8.63;;;6.00;;
13720;SDS011;6932;51.438;5.470;2023-09-08T01:35:24;8.17;;;5.70;;
13720;SDS011;6932;51.438;5.470;2023-09-08T01:37:50;10.13;;;6.10;;
13720;SDS011;6932;51.438;5.470;2023-09-08T01:40:16;9.63;;;6.10;;
13720;SDS011;6932;51.438;5.470;2023-09-08T01:42:44;10.53;;;6.47;;
13720;SDS011;6932;51.438;5.470;2023-09-08T01:45:10;8.73;;;6.20;;
13720;SDS011;6932;51.438;5.470;2023-09-08T01:47:36;7.40;;;5.67;;
13720;SDS011;6932;51.438;5.470;2023-09-08T01:50:02;8.93;;;6.50;;
13720;SDS011;6932;51.438;5.470;2023-09-08T01:52:29;10.40;;;6.00;;
13720;SDS011;6932;51.438;5.470;2023-09-08T01:54:55;9.73;;;6.00;;
13720;SDS011;6932;51.438;5.470;2023-09-08T01:57:21;8.33;;;5.97;;
13720;SDS011;6932;51.438;5.470;2023-09-08T01:59:46;8.07;;;6.00;;
13720;SDS011;6932;51.438;5.470;2023-09-08T02:02:13;8.00;;;6.10;;
13720;SDS011;6932;51.438;5.470;2023-09-08T02:04:39;10.00;;;6.40;;
13720;SDS011;6932;51.438;5.470;2023-09-08T02:07:05;10.27;;;6.10;;
13720;SDS011;6932;51.438;5.470;2023-09-08T02:09:31;9.30;;;6.10;;
13720;SDS011;6932;51.438;5.470;2023-09-08T02:12:00;9.73;;;6.13;;
13720;SDS011;6932;51.438;5.470;2023-09-08T02:14:26;9.67;;;6.70;;
13720;SDS011;6932;51.438;5.470;2023-09-08T02:16:53;8.67;;;6.30;;
13720;SDS011;6932;51.438;5.470;2023-09-08T02:19:19;8.30;;;6.40;;
13720;SDS011;6932;51.438;5.470;2023-09-08T02:21:45;9.27;;;6.10;;
13720;SDS011;6932;51.438;5.470;2023-09-08T02:24:11;11.27;;;6.73;;
13720;SDS011;6932;51.438;5.470;2023-09-08T02:26:40;14.17;;;6.57;;
13720;SDS011;6932;51.438;5.470;2023-09-08T02:29:06;11.10;;;6.73;;
13720;SDS011;6932;51.438;5.470;2023-09-08T02:31:32;10.60;;;6.80;;
13720;SDS011;6932;51.438;5.470;2023-09-08T02:33:58;9.97;;;6.70;;
13720;SDS011;6932;51.438;5.470;2023-09-08T02:36:24;10.43;;;7.00;;
13720;SDS011;6932;51.438;5.470;2023-09-08T02:38:55;9.47;;;6.87;;
13720;SDS011;6932;51.438;5.470;2023-09-08T02:41:21;9.77;;;6.97;;
13720;SDS011;6932;51.438;5.470;2023-09-08T02:43:47;9.70;;;6.67;;
13720;SDS011;6932;51.438;5.470;2023-09-08T02:46:14;8.77;;;6.60;;
13720;SDS011;6932;51.438;5.470;2023-09-08T02:48:40;8.60;;;6.50;;
13720;SDS011;6932;51.438;5.470;2023-09-08T02:51:06;9.43;;;6.67;;
13720;SDS011;6932;51.438;5.470;2023-09-08T02:53:32;9.90;;;6.60;;
13720;SDS011;6932;51.438;5.470;2023-09-08T02:55:58;9.80;;;6.70;;
13720;SDS011;6932;51.438;5.470;2023-09-08T02:58:25;10.07;;;6.80;;
13720;SDS011;6932;51.438;5.470;2023-09-08T03:00:52;10.10;;;7.33;;
13720;SDS011;6932;51.438;5.470;2023-09-08T03:03:18;9.00;;;6.57;;
13720;SDS011;6932;51.438;5.470;2023-09-08T03:05:45;8.43;;;6.50;;
13720;SDS011;6932;51.438;5.470;2023-09-08T03:08:11;10.93;;;6.87;;
13720;SDS011;6932;51.438;5.470;2023-09-08T03:10:37;8.83;;;6.77;;
13720;SDS011;6932;51.438;5.470;2023-09-08T03:13:03;11.03;;;6.83;;
13720;SDS011;6932;51.438;5.470;2023-09-08T03:15:29;10.10;;;6.73;;
13720;SDS011;6932;51.438;5.470;2023-09-08T03:17:55;9.70;;;7.03;;
13720;SDS011;6932;51.438;5.470;2023-09-08T03:20:25;10.17;;;7.00;;
13720;SDS011;6932;51.438;5.470;2023-09-08T03:22:53;10.33;;;6.33;;
13720;SDS011;6932;51.438;5.470;2023-09-08T03:25:20;12.27;;;6.70;;
13720;SDS011;6932;51.438;5.470;2023-09-08T03:27:46;9.87;;;7.20;;
13720;SDS011;6932;51.438;5.470;2023-09-08T03:30:12;9.87;;;7.00;;
13720;SDS011;6932;51.438;5.470;2023-09-08T03:32:38;10.33;;;7.10;;
13720;SDS011;6932;51.438;5.470;2023-09-08T03:35:04;10.33;;;6.80;;
13720;SDS011;6932;51.438;5.470;2023-09-08T03:37:32;11.23;;;7.07;;
13720;SDS011;6932;51.438;5.470;2023-09-08T03:39:59;10.60;;;7.20;;
13720;SDS011;6932;51.438;5.470;2023-09-08T03:42:25;9.97;;;6.73;;
13720;SDS011;6932;51.438;5.470;2023-09-08T03:44:51;10.03;;;6.60;;
13720;SDS011;6932;51.438;5.470;2023-09-08T03:47:17;8.87;;;7.07;;
13720;SDS011;6932;51.438;5.470;2023-09-08T03:49:42;11.10;;;7.27;;
13720;SDS011;6932;51.438;5.470;2023-09-08T03:52:08;9.93;;;7.10;;
13720;SDS011;6932;51.438;5.470;2023-09-08T03:54:34;9.20;;;7.20;;
13720;SDS011;6932;51.438;5.470;2023-09-08T03:57:00;9.80;;;7.17;;
13720;SDS011;6932;51.438;5.470;2023-09-08T03:59:25;10.50;;;7.10;;
13720;SDS011;6932;51.438;5.470;2023-09-08T04:01:51;10.97;;;7.53;;
13720;SDS011;6932;51.438;5.470;2023-09-08T04:04:17;9.77;;;6.77;;
13720;SDS011;6932;51.438;5.470;2023-09-08T04:06:45;9.50;;;6.83;;
13720;SDS011;6932;51.438;5.470;2023-09-08T04:09:10;10.70;;;6.77;;
13720;SDS011;6932;51.438;5.470;2023-09-08T04:11:36;9.03;;;6.80;;
13720;SDS011;6932;51.438;5.470;2023-09-08T04:14:02;9.50;;;7.00;;
13720;SDS011;6932;51.438;5.470;2023-09-08T04:16:28;9.97;;;6.73;;
13720;SDS011;6932;51.438;5.470;2023-09-08T04:18:54;9.73;;;7.20;;
13720;SDS011;6932;51.438;5.470;2023-09-08T04:21:19;9.00;;;6.90;;
13720;SDS011;6932;51.438;5.470;2023-09-08T04:23:45;9.57;;;6.63;;
13720;SDS011;6932;51.438;5.470;2023-09-08T04:26:11;12.87;;;7.37;;
13720;SDS011;6932;51.438;5.470;2023-09-08T04:28:38;10.47;;;7.20;;
13720;SDS011;6932;51.438;5.470;2023-09-08T04:31:04;9.17;;;6.77;;
13720;SDS011;6932;51.438;5.470;2023-09-08T04:33:29;10.30;;;6.90;;
13720;SDS011;6932;51.438;5.470;2023-09-08T04:35:55;11.17;;;7.33;;
13720;SDS011;6932;51.438;5.470;2023-09-08T04:38:21;11.30;;;7.00;;
13720;SDS011;6932;51.438;5.470;2023-09-08T04:40:47;9.33;;;6.90;;
13720;SDS011;6932;51.438;5.470;2023-09-08T04:43:13;9.07;;;6.77;;
13720;SDS011;6932;51.438;5.470;2023-09-08T04:45:39;12.97;;;7.20;;
13720;SDS011;6932;51.438;5.470;2023-09-08T04:48:05;11.23;;;7.40;;
13720;SDS011;6932;51.438;5.470;2023-09-08T04:50:31;11.23;;;7.50;;
13720;SDS011;6932;51.438;5.470;2023-09-08T04:52:56;10.60;;;7.17;;
13720;SDS011;6932;51.438;5.470;2023-09-08T04:55:22;9.13;;;6.90;;
13720;SDS011;6932;51.438;5.470;2023-09-08T04:57:48;10.90;;;6.80;;
13720;SDS011;6932;51.438;5.470;2023-09-08T05:00:14;9.93;;;6.80;;
13720;SDS011;6932;51.438;5.470;2023-09-08T05:02:41;10.97;;;6.93;;
13720;SDS011;6932;51.438;5.470;2023-09-08T05:05:07;9.67;;;6.90;;
13720;SDS011;6932;51.438;5.470;2023-09-08T05:07:33;11.77;;;6.97;;
13720;SDS011;6932;51.438;5.470;2023-09-08T05:09:58;10.93;;;6.80;;
13720;SDS011;6932;51.438;5.470;2023-09-08T05:12:24;10.07;;;7.13;;
13720;SDS011;6932;51.438;5.470;2023-09-08T05:14:50;9.67;;;6.60;;
13720;SDS011;6932;51.438;5.470;2023-09-08T05:17:21;10.47;;;6.60;;
13720;SDS011;6932;51.438;5.470;2023-09-08T05:19:48;9.47;;;6.77;;
13720;SDS011;6932;51.438;5.470;2023-09-08T05:22:14;11.17;;;7.23;;
13720;SDS011;6932;51.438;5.470;2023-09-08T05:24:40;9.70;;;6.93;;
13720;SDS011;6932;51.438;5.470;2023-09-08T05:27:06;10.90;;;6.90;;
13720;SDS011;6932;51.438;5.470;2023-09-08T05:29:31;13.63;;;8.17;;
13720;SDS011;6932;51.438;5.470;2023-09-08T05:31:57;11.43;;;7.27;;
13720;SDS011;6932;51.438;5.470;2023-09-08T05:34:23;9.80;;;7.13;;
13720;SDS011;6932;51.438;5.470;2023-09-08T05:36:49;11.60;;;7.30;;
13720;SDS011;6932;51.438;5.470;2023-09-08T05:39:15;9.07;;;6.73;;
13720;SDS011;6932;51.438;5.470;2023-09-08T05:41:42;13.33;;;7.50;;
13720;SDS011;6932;51.438;5.470;2023-09-08T05:44:08;12.23;;;7.93;;
13720;SDS011;6932;51.438;5.470;2023-09-08T05:46:33;12.33;;;7.60;;
13720;SDS011;6932;51.438;5.470;2023-09-08T05:48:59;13.73;;;7.67;;
13720;SDS011;6932;51.438;5.470;2023-09-08T05:51:25;11.00;;;6.97;;
13720;SDS011;6932;51.438;5.470;2023-09-08T05:53:51;12.87;;;7.50;;
13720;SDS011;6932;51.438;5.470;2023-09-08T05:56:18;12.97;;;8.30;;
13720;SDS011;6932;51.438;5.470;2023-09-08T05:58:44;10.83;;;8.10;;
13720;SDS011;6932;51.438;5.470;2023-09-08T06:01:11;12.50;;;7.43;;
13720;SDS011;6932;51.438;5.470;2023-09-08T06:03:36;11.40;;;7.60;;
13720;SDS011;6932;51.438;5.470;2023-09-08T06:06:02;10.47;;;7.50;;
13720;SDS011;6932;51.438;5.470;2023-09-08T06:08:28;13.27;;;8.00;;
13720;SDS011;6932;51.438;5.470;2023-09-08T06:10:54;11.87;;;7.53;;
13720;SDS011;6932;51.438;5.470;2023-09-08T06:13:19;10.90;;;7.60;;
13720;SDS011;6932;51.438;5.470;2023-09-08T06:15:45;13.10;;;8.47;;
13720;SDS011;6932;51.438;5.470;2023-09-08T06:18:11;12.77;;;8.20;;
13720;SDS011;6932;51.438;5.470;2023-09-08T06:20:37;13.97;;;8.37;;
13720;SDS011;6932;51.438;5.470;2023-09-08T06:23:09;15.60;;;7.63;;
13720;SDS011;6932;51.438;5.470;2023-09-08T06:25:34;11.83;;;7.93;;
13720;SDS011;6932;51.438;5.470;2023-09-08T06:28:01;10.83;;;7.63;;
13720;SDS011;6932;51.438;5.470;2023-09-08T06:30:26;12.43;;;7.97;;
13720;SDS011;6932;51.438;5.470;2023-09-08T06:32:52;14.00;;;8.20;;
13720;SDS011;6932;51.438;5.470;2023-09-08T06:35:18;13.77;;;7.93;;
13720;SDS011;6932;51.438;5.470;2023-09-08T06:37:43;12.87;;;8.03;;
13720;SDS011;6932;51.438;5.470;2023-09-08T06:40:09;12.50;;;7.60;;
13720;SDS011;6932;51.438;5.470;2023-09-08T06:42:35;12.97;;;7.83;;
13720;SDS011;6932;51.438;5.470;2023-09-08T06:45:01;14.37;;;8.17;;
13720;SDS011;6932;51.438;5.470;2023-09-08T06:47:27;12.70;;;7.77;;
13720;SDS011;6932;51.438;5.470;2023-09-08T06:49:52;12.90;;;8.00;;
13720;SDS011;6932;51.438;5.470;2023-09-08T06:52:18;11.00;;;7.93;;
13720;SDS011;6932;51.438;5.470;2023-09-08T06:54:44;12.30;;;8.37;;
13720;SDS011;6932;51.438;5.470;2023-09-08T06:57:12;11.63;;;7.90;;
13720;SDS011;6932;51.438;5.470;2023-09-08T06:59:38;12.13;;;8.57;;
13720;SDS011;6932;51.438;5.470;2023-09-08T07:02:04;11.43;;;8.00;;
13720;SDS011;6932;51.438;5.470;2023-09-08T07:04:31;12.97;;;7.87;;
13720;SDS011;6932;51.438;5.470;2023-09-08T07:06:57;10.83;;;8.17;;
13720;SDS011;6932;51.438;5.470;2023-09-08T07:09:25;11.63;;;8.13;;
13720;SDS011;6932;51.438;5.470;2023-09-08T07:11:50;11.53;;;7.97;;
13720;SDS011;6932;51.438;5.470;2023-09-08T07:14:16;14.83;;;8.20;;
13720;SDS011;6932;51.438;5.470;2023-09-08T07:16:42;11.40;;;8.35;;
13720;SDS011;6932;51.438;5.470;2023-09-08T07:19:07;11.52;;;8.05;;
13720;SDS011;6932;51.438;5.470;2023-09-08T07:21:33;11.85;;;8.27;;
13720;SDS011;6932;51.438;5.470;2023-09-08T07:23:59;13.15;;;8.70;;
13720;SDS011;6932;51.438;5.470;2023-09-08T07:26:25;12.98;;;8.30;;
13720;SDS011;6932;51.438;5.470;2023-09-08T07:28:51;11.50;;;8.10;;
13720;SDS011;6932;51.438;5.470;2023-09-08T07:31:16;11.13;;;8.35;;
13720;SDS011;6932;51.438;5.470;2023-09-08T07:33:42;11.35;;;7.93;;
13720;SDS011;6932;51.438;5.470;2023-09-08T07:36:08;10.90;;;8.10;;
13720;SDS011;6932;51.438;5.470;2023-09-08T07:38:35;11.25;;;7.97;;
13720;SDS011;6932;51.438;5.470;2023-09-08T07:41:01;10.73;;;8.02;;
13720;SDS011;6932;51.438;5.470;2023-09-08T07:43:27;11.32;;;8.10;;
13720;SDS011;6932;51.438;5.470;2023-09-08T07:45:53;9.73;;;7.20;;
13720;SDS011;6932;51.438;5.470;2023-09-08T07:48:19;11.35;;;7.75;;
13720;SDS011;6932;51.438;5.470;2023-09-08T07:50:45;9.77;;;6.78;;
13720;SDS011;6932;51.438;5.470;2023-09-08T07:53:11;11.93;;;6.88;;
13720;SDS011;6932;51.438;5.470;2023-09-08T07:55:37;9.25;;;6.85;;
13720;SDS011;6932;51.438;5.470;2023-09-08T07:58:03;11.23;;;6.82;;
13720;SDS011;6932;51.438;5.470;2023-09-08T08:00:29;10.40;;;7.30;;
13720;SDS011;6932;51.438;5.470;2023-09-08T08:02:56;7.57;;;5.88;;
13720;SDS011;6932;51.438;5.470;2023-09-08T08:05:23;10.20;;;6.68;;
13720;SDS011;6932;51.438;5.470;2023-09-08T08:07:50;9.50;;;6.30;;
13720;SDS011;6932;51.438;5.470;2023-09-08T08:10:16;9.80;;;6.35;;
13720;SDS011;6932;51.438;5.470;2023-09-08T08:12:42;9.65;;;6.45;;
13720;SDS011;6932;51.438;5.470;2023-09-08T08:15:09;10.43;;;6.45;;
13720;SDS011;6932;51.438;5.470;2023-09-08T08:17:35;10.02;;;5.95;;
13720;SDS011;6932;51.438;5.470;2023-09-08T08:20:02;10.10;;;6.10;;
13720;SDS011;6932;51.438;5.470;2023-09-08T08:22:34;8.52;;;6.05;;
13720;SDS011;6932;51.438;5.470;2023-09-08T08:25:02;9.45;;;5.85;;
13720;SDS011;6932;51.438;5.470;2023-09-08T08:27:31;12.75;;;5.95;;
13720;SDS011;6932;51.438;5.470;2023-09-08T08:29:57;8.13;;;5.65;;
13720;SDS011;6932;51.438;5.470;2023-09-08T08:32:25;8.38;;;5.53;;
13720;SDS011;6932;51.438;5.470;2023-09-08T08:34:52;7.47;;;5.25;;
13720;SDS011;6932;51.438;5.470;2023-09-08T08:37:18;6.95;;;4.97;;
13720;SDS011;6932;51.438;5.470;2023-09-08T08:39:44;6.35;;;4.82;;
13720;SDS011;6932;51.438;5.470;2023-09-08T08:42:10;8.48;;;5.10;;
13720;SDS011;6932;51.438;5.470;2023-09-08T08:44:38;8.50;;;5.38;;
13720;SDS011;6932;51.438;5.470;2023-09-08T08:47:08;7.38;;;4.60;;
13720;SDS011;6932;51.438;5.470;2023-09-08T08:49:37;7.53;;;4.55;;
13720;SDS011;6932;51.438;5.470;2023-09-08T08:52:07;9.38;;;4.68;;
13720;SDS011;6932;51.438;5.470;2023-09-08T08:54:40;6.72;;;4.32;;
13720;SDS011;6932;51.438;5.470;2023-09-08T08:57:07;6.00;;;4.45;;
13720;SDS011;6932;51.438;5.470;2023-09-08T08:59:34;5.90;;;4.45;;
13720;SDS011;6932;51.438;5.470;2023-09-08T09:02:02;7.07;;;4.45;;
13720;SDS011;6932;51.438;5.470;2023-09-08T09:04:32;8.73;;;4.43;;
13720;SDS011;6932;51.438;5.470;2023-09-08T09:06:59;7.45;;;4.72;;
13720;SDS011;6932;51.438;5.470;2023-09-08T09:09:26;7.70;;;4.70;;
13720;SDS011;6932;51.438;5.470;2023-09-08T09:11:53;8.57;;;4.70;;
13720;SDS011;6932;51.438;5.470;2023-09-08T09:14:19;7.90;;;5.05;;
13720;SDS011;6932;51.438;5.470;2023-09-08T09:16:45;6.75;;;4.88;;
13720;SDS011;6932;51.438;5.470;2023-09-08T09:19:19;7.22;;;4.90;;
13720;SDS011;6932;51.438;5.470;2023-09-08T09:21:52;6.25;;;4.75;;
13720;SDS011;6932;51.438;5.470;2023-09-08T09:27:01;7.15;;;4.97;;
13720;SDS011;6932;51.438;5.470;2023-09-08T09:29:30;9.38;;;4.93;;
13720;SDS011;6932;51.438;5.470;2023-09-08T09:31:57;7.55;;;4.90;;
13720;SDS011;6932;51.438;5.470;2023-09-08T09:34:31;7.43;;;4.78;;
13720;SDS011;6932;51.438;5.470;2023-09-08T09:36:57;5.97;;;4.63;;
13720;SDS011;6932;51.438;5.470;2023-09-08T09:39:24;7.70;;;4.95;;
13720;SDS011;6932;51.438;5.470;2023-09-08T09:41:54;5.95;;;4.80;;
13720;SDS011;6932;51.438;5.470;2023-09-08T09:44:22;6.85;;;4.80;;
13720;SDS011;6932;51.438;5.470;2023-09-08T09:46:51;10.55;;;5.20;;
13720;SDS011;6932;51.438;5.470;2023-09-08T09:49:18;7.10;;;4.90;;
13720;SDS011;6932;51.438;5.470;2023-09-08T09:51:48;7.80;;;5.07;;
13720;SDS011;6932;51.438;5.470;2023-09-08T09:54:17;6.40;;;4.65;;
13720;SDS011;6932;51.438;5.470;2023-09-08T09:56:44;7.50;;;4.75;;
13720;SDS011;6932;51.438;5.470;2023-09-08T09:59:15;7.68;;;4.82;;
13720;SDS011;6932;51.438;5.470;2023-09-08T10:01:41;6.38;;;4.50;;
13720;SDS011;6932;51.438;5.470;2023-09-08T10:04:08;7.03;;;4.80;;
13720;SDS011;6932;51.438;5.470;2023-09-08T10:06:36;8.13;;;4.50;;
13720;SDS011;6932;51.438;5.470;2023-09-08T10:09:05;7.43;;;4.43;;
13720;SDS011;6932;51.438;5.470;2023-09-08T10:11:41;7.03;;;4.72;;
13720;SDS011;6932;51.438;5.470;2023-09-08T10:14:11;9.13;;;4.80;;
13720;SDS011;6932;51.438;5.470;2023-09-08T10:16:40;7.28;;;4.53;;
13720;SDS011;6932;51.438;5.470;2023-09-08T10:19:09;9.60;;;4.63;;
13720;SDS011;6932;51.438;5.470;2023-09-08T10:21:39;6.47;;;4.57;;
13720;SDS011;6932;51.438;5.470;2023-09-08T10:24:28;8.45;;;4.88;;
13720;SDS011;6932;51.438;5.470;2023-09-08T10:27:03;7.20;;;4.72;;
13720;SDS011;6932;51.438;5.470;2023-09-08T10:29:34;7.43;;;4.90;;
13720;SDS011;6932;51.438;5.470;2023-09-08T10:32:00;5.82;;;4.30;;
13720;SDS011;6932;51.438;5.470;2023-09-08T10:34:28;7.80;;;4.93;;
13720;SDS011;6932;51.438;5.470;2023-09-08T10:36:56;8.95;;;4.90;;
13720;SDS011;6932;51.438;5.470;2023-09-08T10:47:12;7.88;;;4.85;;
13720;SDS011;6932;51.438;5.470;2023-09-08T10:49:39;7.40;;;4.63;;
13720;SDS011;6932;51.438;5.470;2023-09-08T10:52:09;8.00;;;4.38;;
13720;SDS011;6932;51.438;5.470;2023-09-08T10:54:43;8.57;;;4.82;;
13720;SDS011;6932;51.438;5.470;2023-09-08T10:57:13;5.55;;;4.47;;
13720;SDS011;6932;51.438;5.470;2023-09-08T10:59:53;5.90;;;4.30;;
13720;SDS011;6932;51.438;5.470;2023-09-08T11:02:39;7.20;;;4.78;;
13720;SDS011;6932;51.438;5.470;2023-09-08T11:05:19;6.80;;;4.85;;
13720;SDS011;6932;51.438;5.470;2023-09-08T11:07:47;6.53;;;4.70;;
13720;SDS011;6932;51.438;5.470;2023-09-08T11:10:17;6.85;;;4.32;;
13720;SDS011;6932;51.438;5.470;2023-09-08T11:12:43;8.52;;;4.28;;
13720;SDS011;6932;51.438;5.470;2023-09-08T11:15:09;7.47;;;4.25;;
13720;SDS011;6932;51.438;5.470;2023-09-08T11:17:36;5.68;;;4.25;;
13720;SDS011;6932;51.438;5.470;2023-09-08T11:20:07;6.70;;;4.38;;
13720;SDS011;6932;51.438;5.470;2023-09-08T11:22:35;6.50;;;3.78;;
13720;SDS011;6932;51.438;5.470;2023-09-08T11:25:04;8.02;;;4.22;;
13720;SDS011;6932;51.438;5.470;2023-09-08T11:27:33;6.20;;;4.00;;
13720;SDS011;6932;51.438;5.470;2023-09-08T11:29:59;5.43;;;3.90;;
13720;SDS011;6932;51.438;5.470;2023-09-08T11:32:31;7.15;;;4.40;;
13720;SDS011;6932;51.438;5.470;2023-09-08T11:35:04;6.35;;;3.90;;
13720;SDS011;6932;51.438;5.470;2023-09-08T11:37:36;5.80;;;4.00;;
13720;SDS011;6932;51.438;5.470;2023-09-08T11:40:06;8.05;;;4.30;;
13720;SDS011;6932;51.438;5.470;2023-09-08T11:42:35;4.82;;;3.80;;
13720;SDS011;6932;51.438;5.470;2023-09-08T11:45:01;5.30;;;4.05;;
13720;SDS011;6932;51.438;5.470;2023-09-08T11:47:29;5.18;;;4.05;;
13720;SDS011;6932;51.438;5.470;2023-09-08T11:49:56;6.55;;;4.10;;
13720;SDS011;6932;51.438;5.470;2023-09-08T11:52:23;8.82;;;4.10;;
13720;SDS011;6932;51.438;5.470;2023-09-08T11:54:49;4.53;;;3.50;;
13720;SDS011;6932;51.438;5.470;2023-09-08T11:57:16;6.43;;;4.10;;
13720;SDS011;6932;51.438;5.470;2023-09-08T11:59:43;8.02;;;3.70;;
13720;SDS011;6932;51.438;5.470;2023-09-08T12:02:13;4.97;;;3.67;;
13720;SDS011;6932;51.438;5.470;2023-09-08T12:04:39;5.82;;;3.95;;
13720;SDS011;6932;51.438;5.470;2023-09-08T12:07:07;7.30;;;3.97;;
13720;SDS011;6932;51.438;5.470;2023-09-08T12:09:41;6.28;;;4.25;;
13720;SDS011;6932;51.438;5.470;2023-09-08T12:12:13;11.63;;;4.20;;
13720;SDS011;6932;51.438;5.470;2023-09-08T12:14:42;6.57;;;4.35;;
13720;SDS011;6932;51.438;5.470;2023-09-08T12:17:08;5.40;;;3.65;;
13720;SDS011;6932;51.438;5.470;2023-09-08T12:19:34;5.95;;;3.70;;
13720;SDS011;6932;51.438;5.470;2023-09-08T12:22:04;4.85;;;3.88;;
13720;SDS011;6932;51.438;5.470;2023-09-08T12:27:21;4.60;;;3.53;;
13720;SDS011;6932;51.438;5.470;2023-09-08T12:29:52;5.65;;;3.80;;
13720;SDS011;6932;51.438;5.470;2023-09-08T12:32:19;5.93;;;3.88;;
13720;SDS011;6932;51.438;5.470;2023-09-08T12:34:46;5.43;;;4.30;;
13720;SDS011;6932;51.438;5.470;2023-09-08T12:37:12;8.32;;;4.10;;
13720;SDS011;6932;51.438;5.470;2023-09-08T12:39:38;6.80;;;4.28;;
13720;SDS011;6932;51.438;5.470;2023-09-08T12:42:04;6.90;;;4.43;;
13720;SDS011;6932;51.438;5.470;2023-09-08T12:44:30;10.50;;;4.47;;
13720;SDS011;6932;51.438;5.470;2023-09-08T12:46:56;6.30;;;4.28;;
13720;SDS011;6932;51.438;5.470;2023-09-08T12:49:21;5.55;;;4.07;;
13720;SDS011;6932;51.438;5.470;2023-09-08T12:51:47;7.20;;;4.15;;
13720;SDS011;6932;51.438;5.470;2023-09-08T12:54:13;6.40;;;4.20;;
13720;SDS011;6932;51.438;5.470;2023-09-08T12:56:39;5.70;;;4.15;;
13720;SDS011;6932;51.438;5.470;2023-09-08T12:59:04;5.68;;;3.80;;
13720;SDS011;6932;51.438;5.470;2023-09-08T13:01:30;7.07;;;4.57;;
13720;SDS011;6932;51.438;5.470;2023-09-08T13:03:56;6.32;;;4.20;;
13720;SDS011;6932;51.438;5.470;2023-09-08T13:06:21;5.97;;;4.47;;
13720;SDS011;6932;51.438;5.470;2023-09-08T13:08:47;6.80;;;4.40;;
13720;SDS011;6932;51.438;5.470;2023-09-08T13:11:13;6.57;;;4.45;;
13720;SDS011;6932;51.438;5.470;2023-09-08T13:13:38;7.22;;;4.32;;
13720;SDS011;6932;51.438;5.470;2023-09-08T13:16:04;5.78;;;4.55;;
13720;SDS011;6932;51.438;5.470;2023-09-08T13:18:30;6.43;;;4.55;;
13720;SDS011;6932;51.438;5.470;2023-09-08T13:21:00;7.95;;;4.60;;
13720;SDS011;6932;51.438;5.470;2023-09-08T13:23:26;5.97;;;4.45;;
13720;SDS011;6932;51.438;5.470;2023-09-08T13:25:52;8.63;;;4.65;;
13720;SDS011;6932;51.438;5.470;2023-09-08T13:28:17;6.18;;;4.40;;
13720;SDS011;6932;51.438;5.470;2023-09-08T13:30:43;6.10;;;4.32;;
13720;SDS011;6932;51.438;5.470;2023-09-08T13:33:09;5.35;;;4.50;;
13720;SDS011;6932;51.438;5.470;2023-09-08T13:35:35;6.95;;;4.15;;
13720;SDS011;6932;51.438;5.470;2023-09-08T13:38:00;7.60;;;4.22;;
13720;SDS011;6932;51.438;5.470;2023-09-08T13:40:28;5.72;;;4.15;;
13720;SDS011;6932;51.438;5.470;2023-09-08T13:42:54;14.80;;;4.68;;
13720;SDS011;6932;51.438;5.470;2023-09-08T13:45:19;6.60;;;4.40;;
13720;SDS011;6932;51.438;5.470;2023-09-08T13:47:45;6.68;;;4.30;;
13720;SDS011;6932;51.438;5.470;2023-09-08T13:50:11;5.82;;;4.25;;
13720;SDS011;6932;51.438;5.470;2023-09-08T13:52:36;5.97;;;4.20;;
13720;SDS011;6932;51.438;5.470;2023-09-08T13:55:05;7.63;;;4.78;;
13720;SDS011;6932;51.438;5.470;2023-09-08T13:57:31;5.97;;;4.30;;
13720;SDS011;6932;51.438;5.470;2023-09-08T13:59:57;7.70;;;4.57;;
13720;SDS011;6932;51.438;5.470;2023-09-08T14:02:23;5.25;;;4.50;;
13720;SDS011;6932;51.438;5.470;2023-09-08T14:04:49;5.97;;;4.38;;
13720;SDS011;6932;51.438;5.470;2023-09-08T14:07:14;6.18;;;4.10;;
13720;SDS011;6932;51.438;5.470;2023-09-08T14:09:40;6.82;;;4.05;;
13720;SDS011;6932;51.438;5.470;2023-09-08T14:12:06;7.47;;;4.45;;
13720;SDS011;6932;51.438;5.470;2023-09-08T14:14:32;6.95;;;4.32;;
13720;SDS011;6932;51.438;5.470;2023-09-08T14:16:58;9.93;;;4.50;;
13720;SDS011;6932;51.438;5.470;2023-09-08T14:19:23;7.03;;;4.60;;
13720;SDS011;6932;51.438;5.470;2023-09-08T14:21:49;5.70;;;4.50;;
13720;SDS011;6932;51.438;5.470;2023-09-08T14:24:15;7.22;;;4.10;;
13720;SDS011;6932;51.438;5.470;2023-09-08T14:26:40;4.75;;;3.95;;
13720;SDS011;6932;51.438;5.470;2023-09-08T14:29:06;5.72;;;3.97;;
13720;SDS011;6932;51.438;5.470;2023-09-08T14:31:32;7.45;;;3.97;;
13720;SDS011;6932;51.438;5.470;2023-09-08T14:33:58;7.05;;;4.13;;
13720;SDS011;6932;51.438;5.470;2023-09-08T14:36:24;7.03;;;3.78;;
13720;SDS011;6932;51.438;5.470;2023-09-08T14:38:50;7.35;;;4.25;;
13720;SDS011;6932;51.438;5.470;2023-09-08T14:41:16;8.57;;;4.30;;
13720;SDS011;6932;51.438;5.470;2023-09-08T14:43:42;6.82;;;3.80;;
13720;SDS011;6932;51.438;5.470;2023-09-08T14:46:08;5.22;;;4.20;;
13720;SDS011;6932;51.438;5.470;2023-09-08T14:48:33;5.18;;;4.10;;
13720;SDS011;6932;51.438;5.470;2023-09-08T14:51:01;5.57;;;4.15;;
13720;SDS011;6932;51.438;5.470;2023-09-08T14:53:28;4.75;;;4.10;;
13720;SDS011;6932;51.438;5.470;2023-09-08T14:55:56;5.90;;;4.13;;
13720;SDS011;6932;51.438;5.470;2023-09-08T14:58:23;6.55;;;4.05;;
13720;SDS011;6932;51.438;5.470;2023-09-08T15:00:50;7.32;;;4.10;;
13720;SDS011;6932;51.438;5.470;2023-09-08T15:03:16;4.55;;;3.80;;
13720;SDS011;6932;51.438;5.470;2023-09-08T15:05:42;5.35;;;3.78;;
13720;SDS011;6932;51.438;5.470;2023-09-08T15:08:08;8.05;;;4.30;;
13720;SDS011;6932;51.438;5.470;2023-09-08T15:10:34;8.43;;;4.10;;
13720;SDS011;6932;51.438;5.470;2023-09-08T15:13:00;9.32;;;4.07;;